createdAt,value
2023-04-09T00:01:09.298Z,9.30
2023-04-09T00:03:39.557Z,11.50
2023-04-09T00:06:11.924Z,10.77
2023-04-09T00:08:41.852Z,10.43
2023-04-09T00:11:11.463Z,11.15
2023-04-09T00:13:41.775Z,10.48
2023-04-09T00:16:11.564Z,9.88
2023-04-09T00:18:41.653Z,10.85
2023-04-09T00:21:13.982Z,10.30
2023-04-09T00:23:43.671Z,10.30
2023-04-09T00:26:13.291Z,9.18
2023-04-09T00:28:43.390Z,8.25
2023-04-09T00:31:13.606Z,9.88
2023-04-09T00:33:43.266Z,8.48
2023-04-09T00:36:15.771Z,11.15
2023-04-09T00:38:45.669Z,10.15
2023-04-09T00:41:15.506Z,9.57
2023-04-09T00:43:45.177Z,9.50
2023-04-09T00:46:15.031Z,11.00
2023-04-09T00:48:44.782Z,11.30
2023-04-09T00:51:16.964Z,9.40
2023-04-09T00:53:46.787Z,11.68
2023-04-09T00:56:16.700Z,11.65
2023-04-09T00:58:46.537Z,10.38
2023-04-09T01:01:16.313Z,8.50
2023-04-09T01:03:46.122Z,13.60
2023-04-09T01:06:26.222Z,9.25
2023-04-09T01:08:59.886Z,9.90
2023-04-09T01:11:34.990Z,10.60
2023-04-09T01:14:11.640Z,11.93
2023-04-09T01:16:45.482Z,11.25
2023-04-09T01:19:22.759Z,10.32
2023-04-09T01:21:55.356Z,11.52
2023-04-09T01:24:35.024Z,8.48
2023-04-09T01:27:06.879Z,10.02
2023-04-09T01:29:58.680Z,11.65
2023-04-09T01:32:32.573Z,10.02
2023-04-09T01:35:02.933Z,13.45
2023-04-09T01:37:32.682Z,11.02
2023-04-09T01:40:02.460Z,11.60
2023-04-09T01:42:32.203Z,11.02
2023-04-09T01:45:05.203Z,11.05
2023-04-09T01:47:35.191Z,15.38
2023-04-09T01:50:14.922Z,11.65
2023-04-09T01:52:44.982Z,10.90
2023-04-09T01:55:14.875Z,11.70
2023-04-09T01:57:44.483Z,13.20
2023-04-09T02:00:17.678Z,9.98
2023-04-09T02:02:50.075Z,11.65
2023-04-09T02:05:23.363Z,9.30
2023-04-09T02:07:55.534Z,12.35
2023-04-09T02:10:27.381Z,11.70
2023-04-09T02:12:58.195Z,9.02
2023-04-09T02:15:31.574Z,9.25
2023-04-09T02:18:01.386Z,9.68
2023-04-09T02:20:31.089Z,9.80
2023-04-09T02:23:00.762Z,9.30
2023-04-09T02:25:30.657Z,8.27
2023-04-09T02:28:00.302Z,11.10
2023-04-09T02:30:32.562Z,10.07
2023-04-09T02:33:02.397Z,11.35
2023-04-09T02:35:32.107Z,11.35
2023-04-09T02:38:01.722Z,11.50
2023-04-09T02:40:31.536Z,9.35
2023-04-09T02:43:01.467Z,14.15
2023-04-09T02:45:33.978Z,13.00
2023-04-09T02:48:03.864Z,9.88
2023-04-09T02:50:37.255Z,12.73
2023-04-09T02:53:06.876Z,11.07
2023-04-09T02:55:36.500Z,14.25
2023-04-09T02:58:06.167Z,11.98
2023-04-09T03:00:38.376Z,10.82
2023-04-09T03:03:08.142Z,11.38
2023-04-09T03:05:38.237Z,11.88
2023-04-09T03:08:08.611Z,10.07
2023-04-09T03:10:38.262Z,9.93
2023-04-09T03:13:07.975Z,11.32
2023-04-09T03:15:40.297Z,10.80
2023-04-09T03:18:09.960Z,14.05
2023-04-09T03:20:40.545Z,12.68
2023-04-09T03:23:13.263Z,10.35
2023-04-09T03:25:47.332Z,12.07
2023-04-09T03:28:19.510Z,12.80
2023-04-09T03:30:56.238Z,12.95
2023-04-09T03:33:26.201Z,13.60
2023-04-09T03:35:58.290Z,14.88
2023-04-09T03:39:03.288Z,12.82
2023-04-09T03:41:39.168Z,11.57
2023-04-09T03:44:13.192Z,10.13
2023-04-09T03:47:08.331Z,10.63
2023-04-09T03:49:39.738Z,11.10
2023-04-09T03:52:28.332Z,10.10
2023-04-09T03:55:06.042Z,12.60
2023-04-09T03:57:35.761Z,11.43
2023-04-09T04:00:07.059Z,15.10
2023-04-09T04:02:55.790Z,11.13
2023-04-09T04:05:48.489Z,13.10
2023-04-09T04:08:19.945Z,11.63
2023-04-09T04:10:50.348Z,12.47
2023-04-09T04:13:21.538Z,10.83
2023-04-09T04:15:57.627Z,12.43
2023-04-09T04:18:30.029Z,10.67
2023-04-09T04:20:59.857Z,15.60
2023-04-09T04:23:29.505Z,13.80
2023-04-09T04:26:13.948Z,13.23
2023-04-09T04:28:44.427Z,12.03
2023-04-09T04:31:19.439Z,13.83
2023-04-09T04:33:52.525Z,10.83
2023-04-09T04:36:22.223Z,12.63
2023-04-09T04:38:54.685Z,10.30
2023-04-09T04:41:35.875Z,12.27
2023-04-09T04:44:16.265Z,15.93
2023-04-09T04:46:46.004Z,13.20
2023-04-09T04:49:18.255Z,10.03
2023-04-09T04:51:50.393Z,12.98
2023-04-09T04:54:20.303Z,13.50
2023-04-09T04:56:56.582Z,12.70
2023-04-09T04:59:40.004Z,13.67
2023-04-09T05:02:11.976Z,12.33
2023-04-09T05:05:07.376Z,13.67
2023-04-09T05:07:44.038Z,10.87
2023-04-09T05:10:13.763Z,11.23
2023-04-09T05:12:45.495Z,12.00
2023-04-09T05:15:21.853Z,12.83
2023-04-09T05:17:51.576Z,12.63
2023-04-09T05:20:24.449Z,10.13
2023-04-09T05:23:10.434Z,11.70
2023-04-09T05:25:45.825Z,12.65
2023-04-09T05:28:24.366Z,11.07
2023-04-09T05:31:04.664Z,13.48
2023-04-09T05:33:38.487Z,11.07
2023-04-09T05:36:21.026Z,12.27
2023-04-09T05:38:51.139Z,12.97
2023-04-09T05:41:21.154Z,11.30
2023-04-09T05:44:09.441Z,12.05
2023-04-09T05:46:41.706Z,12.05
2023-04-09T05:49:11.733Z,10.20
2023-04-09T05:51:46.075Z,13.32
2023-04-09T05:54:19.686Z,12.77
2023-04-09T05:56:49.390Z,14.93
2023-04-09T05:59:19.184Z,10.07
2023-04-09T06:01:48.789Z,12.18
2023-04-09T06:04:18.496Z,10.93
2023-04-09T06:06:51.639Z,11.45
2023-04-09T06:09:21.476Z,10.65
2023-04-09T06:11:51.051Z,12.80
2023-04-09T06:14:20.661Z,11.15
2023-04-09T06:16:50.205Z,11.98
2023-04-09T06:19:19.895Z,10.73
2023-04-09T06:21:52.168Z,10.95
2023-04-09T06:24:21.859Z,12.63
2023-04-09T06:26:51.589Z,12.57
2023-04-09T06:29:23.158Z,10.45
2023-04-09T06:31:54.260Z,11.38
2023-04-09T06:34:23.908Z,12.63
2023-04-09T06:36:57.145Z,11.05
2023-04-09T06:39:26.908Z,12.52
2023-04-09T06:41:56.765Z,11.63
2023-04-09T06:44:40.619Z,11.20
2023-04-09T06:47:10.844Z,13.30
2023-04-09T06:49:40.660Z,12.82
2023-04-09T06:52:12.842Z,10.70
2023-04-09T06:54:42.768Z,10.38
2023-04-09T06:57:12.311Z,10.40
2023-04-09T06:59:41.923Z,8.68
2023-04-09T07:02:12.303Z,9.05
2023-04-09T07:04:42.066Z,12.18
2023-04-09T07:07:14.393Z,9.35
2023-04-09T07:09:44.052Z,12.00
2023-04-09T07:12:13.627Z,11.82
2023-04-09T07:14:43.271Z,9.65
2023-04-09T07:17:12.861Z,12.48
2023-04-09T07:19:42.408Z,11.27
2023-04-09T07:22:14.602Z,10.23
2023-04-09T07:24:44.273Z,12.05
2023-04-09T07:27:14.147Z,8.38
2023-04-09T07:29:47.326Z,10.50
2023-04-09T07:32:17.148Z,9.40
2023-04-09T07:34:46.722Z,8.73
2023-04-09T07:37:18.989Z,8.27
2023-04-09T07:39:48.768Z,10.48
2023-04-09T07:42:18.322Z,9.73
2023-04-09T07:44:47.944Z,9.77
2023-04-09T07:47:17.535Z,9.43
2023-04-09T07:49:47.268Z,7.30
2023-04-09T07:52:19.846Z,9.07
2023-04-09T07:54:49.585Z,8.10
2023-04-09T07:57:19.471Z,6.75
2023-04-09T07:59:49.109Z,7.05
2023-04-09T08:02:18.751Z,7.43
2023-04-09T08:04:48.698Z,7.45
2023-04-09T08:07:21.151Z,6.80
2023-04-09T08:09:50.820Z,6.22
2023-04-09T08:12:20.659Z,7.93
2023-04-09T08:14:50.856Z,6.65
2023-04-09T08:17:20.426Z,7.25
2023-04-09T08:19:50.126Z,7.47
2023-04-09T08:22:22.372Z,7.35
2023-04-09T08:24:54.070Z,6.85
2023-04-09T08:27:23.710Z,7.32
2023-04-09T08:29:53.350Z,9.68
2023-04-09T08:32:23.058Z,7.78
2023-04-09T08:34:52.796Z,8.50
2023-04-09T08:37:25.068Z,8.73
2023-04-09T08:39:54.703Z,6.75
2023-04-09T08:42:24.671Z,9.00
2023-04-09T08:44:54.277Z,8.00
2023-04-09T08:47:24.049Z,9.77
2023-04-09T08:49:54.464Z,9.10
2023-04-09T08:52:33.531Z,8.18
2023-04-09T08:55:03.443Z,9.20
2023-04-09T08:57:33.069Z,8.27
2023-04-09T09:00:02.708Z,8.68
2023-04-09T09:02:32.387Z,8.70
2023-04-09T09:05:02.176Z,8.32
2023-04-09T09:07:34.621Z,7.10
2023-04-09T09:10:05.260Z,9.30
2023-04-09T09:12:35.736Z,9.07
2023-04-09T09:15:05.522Z,8.43
2023-04-09T09:17:35.285Z,7.28
2023-04-09T09:20:21.700Z,6.60
2023-04-09T09:22:57.880Z,8.20
2023-04-09T09:25:27.515Z,6.45
2023-04-09T09:27:57.541Z,8.07
2023-04-09T09:30:27.907Z,7.90
2023-04-09T09:32:57.771Z,6.97
2023-04-09T09:35:27.349Z,7.35
2023-04-09T09:38:08.464Z,7.13
2023-04-09T09:40:38.062Z,6.13
2023-04-09T09:43:07.595Z,9.52
2023-04-09T09:45:37.230Z,8.32
2023-04-09T09:48:07.761Z,6.43
2023-04-09T09:50:37.944Z,6.25
2023-04-09T09:53:10.772Z,5.18
2023-04-09T09:55:41.713Z,5.95
2023-04-09T09:58:13.476Z,5.32
2023-04-09T10:00:43.214Z,4.90
2023-04-09T10:03:16.436Z,6.10
2023-04-09T10:05:46.618Z,5.00
2023-04-09T10:08:19.036Z,7.13
2023-04-09T10:10:48.867Z,6.20
2023-04-09T10:13:19.615Z,5.25
2023-04-09T10:15:49.381Z,5.20
2023-04-09T10:18:19.199Z,5.95
2023-04-09T10:20:52.282Z,5.05
2023-04-09T10:23:29.374Z,5.90
2023-04-09T10:25:59.050Z,4.97
2023-04-09T10:28:28.612Z,6.90
2023-04-09T10:30:58.441Z,6.45
2023-04-09T10:33:29.406Z,4.55
2023-04-09T10:36:02.999Z,4.80
2023-04-09T10:38:41.158Z,5.30
2023-04-09T10:41:12.613Z,4.97
2023-04-09T10:43:42.392Z,4.88
2023-04-09T10:46:26.800Z,4.97
2023-04-09T10:49:11.530Z,4.30
2023-04-09T10:51:41.959Z,5.95
2023-04-09T10:54:26.370Z,5.03
2023-04-09T10:57:16.738Z,4.60
2023-04-09T10:59:49.632Z,4.68
2023-04-09T11:02:37.078Z,6.18
2023-04-09T11:05:09.901Z,5.80
2023-04-09T11:07:42.189Z,4.50
2023-04-09T11:10:12.407Z,4.50
2023-04-09T11:12:43.183Z,4.80
2023-04-09T11:15:21.522Z,4.72
2023-04-09T11:17:51.586Z,4.13
2023-04-09T11:20:23.409Z,3.80
2023-04-09T11:22:54.159Z,4.07
2023-04-09T11:25:24.552Z,4.53
2023-04-09T11:27:54.162Z,3.63
2023-04-09T11:30:26.735Z,3.85
2023-04-09T11:32:56.466Z,4.40
2023-04-09T11:35:26.402Z,4.78
2023-04-09T11:37:56.389Z,4.60
2023-04-09T11:40:26.586Z,4.25
2023-04-09T11:42:56.970Z,4.35
2023-04-09T11:45:30.759Z,4.78
2023-04-09T11:48:00.771Z,4.30
2023-04-09T11:50:30.644Z,4.32
2023-04-09T11:53:01.138Z,3.90
2023-04-09T11:55:31.568Z,4.40
2023-04-09T11:58:03.174Z,3.85
2023-04-09T12:00:36.400Z,4.10
2023-04-09T12:03:06.975Z,5.50
2023-04-09T12:05:39.169Z,4.45
2023-04-09T12:08:11.465Z,3.90
2023-04-09T12:10:41.378Z,4.28
2023-04-09T12:13:12.114Z,3.70
2023-04-09T12:15:44.748Z,3.53
2023-04-09T12:18:15.531Z,3.38
2023-04-09T12:20:46.661Z,3.80
2023-04-09T12:23:16.534Z,4.45
2023-04-09T12:25:47.847Z,3.63
2023-04-09T12:28:19.118Z,3.83
2023-04-09T12:30:51.388Z,3.40
2023-04-09T12:33:21.337Z,2.72
2023-04-09T12:35:51.214Z,3.92
2023-04-09T12:38:21.063Z,3.83
2023-04-09T12:40:50.783Z,4.28
2023-04-09T12:43:20.898Z,5.38
2023-04-09T12:45:53.308Z,3.70
2023-04-09T12:48:23.034Z,3.87
2023-04-09T12:55:51.340Z,3.10
2023-04-09T12:58:21.025Z,3.58
2023-04-09T13:00:54.631Z,3.35
2023-04-09T13:03:24.528Z,3.72
2023-04-09T13:05:54.483Z,3.47
2023-04-09T13:08:24.174Z,3.70
2023-04-09T13:10:53.805Z,3.55
2023-04-09T13:13:23.627Z,4.13
2023-04-09T13:15:55.843Z,4.18
2023-04-09T13:18:25.514Z,4.53
2023-04-09T13:20:55.130Z,3.83
2023-04-09T13:23:24.779Z,3.70
2023-04-09T13:25:54.408Z,4.28
2023-04-09T13:28:24.104Z,4.22
2023-04-09T13:30:56.338Z,3.35
2023-04-09T13:33:26.081Z,4.25
2023-04-09T13:35:55.661Z,3.53
2023-04-09T13:38:25.296Z,3.40
2023-04-09T13:40:54.925Z,3.83
2023-04-09T13:43:29.354Z,3.08
2023-04-09T13:46:01.872Z,4.45
2023-04-09T13:48:31.860Z,4.43
2023-04-09T13:51:01.567Z,3.95
2023-04-09T13:53:31.403Z,3.85
2023-04-09T13:56:00.946Z,3.67
2023-04-09T13:58:30.610Z,3.58
2023-04-09T14:01:03.658Z,4.35
2023-04-09T14:03:38.643Z,4.10
2023-04-09T14:06:08.656Z,4.40
2023-04-09T14:08:38.711Z,5.00
2023-04-09T14:11:08.913Z,4.50
2023-04-09T14:13:38.488Z,3.63
2023-04-09T14:16:11.523Z,3.50
2023-04-09T14:18:41.824Z,4.30
2023-04-09T14:21:11.502Z,4.93
2023-04-09T14:23:41.692Z,4.28
2023-04-09T14:26:11.446Z,5.47
2023-04-09T14:28:41.105Z,4.57
2023-04-09T14:31:14.437Z,4.55
2023-04-09T14:33:44.132Z,5.47
2023-04-09T14:36:13.700Z,4.80
2023-04-09T14:38:43.286Z,4.35
2023-04-09T14:41:12.852Z,4.40
2023-04-09T14:43:42.564Z,3.80
2023-04-09T14:46:15.305Z,4.38
2023-04-09T14:48:44.977Z,3.90
2023-04-09T14:51:14.814Z,3.53
2023-04-09T14:53:44.756Z,3.63
2023-04-09T14:56:14.330Z,3.83
2023-04-09T14:58:43.919Z,3.97
2023-04-09T15:01:16.294Z,3.72
2023-04-09T15:03:46.129Z,3.88
2023-04-09T15:06:15.947Z,3.90
2023-04-09T15:08:45.624Z,3.85
2023-04-09T15:11:17.498Z,3.17
2023-04-09T15:13:47.357Z,3.63
2023-04-09T15:16:26.076Z,3.78
2023-04-09T15:18:57.921Z,3.50
2023-04-09T15:21:27.962Z,3.65
2023-04-09T15:23:59.220Z,3.35
2023-04-09T15:26:29.303Z,3.20
2023-04-09T15:29:04.246Z,3.53
2023-04-09T15:31:39.501Z,4.22
2023-04-09T15:34:10.630Z,3.22
2023-04-09T15:36:40.217Z,3.85
2023-04-09T15:39:09.892Z,4.05
2023-04-09T15:41:39.704Z,3.05
2023-04-09T15:44:09.529Z,4.20
2023-04-09T15:46:42.031Z,4.05
2023-04-09T15:49:11.675Z,4.25
2023-04-09T15:51:41.272Z,3.90
2023-04-09T15:54:11.094Z,3.85
2023-04-09T15:56:40.683Z,3.75
2023-04-09T15:59:11.107Z,3.65
2023-04-09T16:01:43.516Z,3.53
2023-04-09T16:04:13.239Z,5.35
2023-04-09T16:06:42.867Z,4.03
2023-04-09T16:09:13.069Z,4.32
2023-04-09T16:11:42.655Z,3.63
2023-04-09T16:14:12.221Z,3.95
2023-04-09T16:16:47.370Z,4.30
2023-04-09T16:19:17.074Z,4.03
2023-04-09T16:21:47.082Z,4.20
2023-04-09T16:24:17.186Z,3.85
2023-04-09T16:26:47.584Z,4.53
2023-04-09T16:29:17.950Z,4.65
2023-04-09T16:31:50.251Z,4.68
2023-04-09T16:34:19.883Z,5.07
2023-04-09T16:36:50.895Z,4.55
2023-04-09T16:39:21.097Z,4.25
2023-04-09T16:41:50.882Z,4.80
2023-04-09T16:44:20.513Z,5.55
2023-04-09T16:46:53.184Z,4.82
2023-04-09T16:49:22.831Z,4.97
2023-04-09T16:51:53.341Z,4.03
2023-04-09T16:54:22.961Z,4.88
2023-04-09T16:56:53.258Z,5.90
2023-04-09T16:59:23.101Z,4.72
2023-04-09T17:01:57.161Z,4.72
2023-04-09T17:04:27.491Z,5.00
2023-04-09T17:06:57.122Z,5.25
2023-04-09T17:09:26.716Z,4.60
2023-04-09T17:11:56.946Z,5.03
2023-04-09T17:14:26.601Z,5.25
2023-04-09T17:16:58.917Z,5.00
2023-04-09T17:19:28.758Z,5.00
2023-04-09T17:21:58.466Z,4.97
2023-04-09T17:24:28.211Z,4.65
2023-04-09T17:26:57.768Z,4.95
2023-04-09T17:29:27.449Z,4.65
2023-04-09T17:32:00.189Z,4.75
2023-04-09T17:34:29.962Z,6.05
2023-04-09T17:37:00.226Z,6.45
2023-04-09T17:39:29.941Z,4.90
2023-04-09T17:42:00.838Z,5.07
2023-04-09T17:44:31.599Z,6.35
2023-04-09T17:47:04.007Z,4.45
2023-04-09T17:49:34.542Z,5.40
2023-04-09T17:52:04.410Z,5.20
2023-04-09T17:54:35.380Z,5.75
2023-04-09T18:22:04.514Z,6.10
2023-04-09T18:24:34.672Z,5.93
2023-04-09T18:27:05.110Z,6.40
2023-04-09T18:29:34.758Z,5.95
2023-04-09T18:32:04.337Z,5.53
2023-04-09T18:34:33.983Z,5.57
2023-04-09T18:37:06.529Z,5.60
2023-04-09T18:39:37.780Z,6.40
2023-04-09T18:42:07.808Z,5.38
2023-04-09T18:44:37.707Z,5.78
2023-04-09T18:47:09.380Z,6.75
2023-04-09T18:49:39.076Z,8.07
2023-04-09T18:52:12.894Z,5.57
2023-04-09T18:54:42.709Z,6.22
2023-04-09T18:57:12.364Z,7.30
2023-04-09T18:59:42.401Z,6.50
2023-04-09T19:02:12.186Z,5.65
2023-04-09T19:04:42.352Z,6.68
2023-04-09T19:07:14.641Z,5.28
2023-04-09T19:09:44.786Z,6.90
2023-04-09T19:12:14.359Z,5.45
2023-04-09T19:14:43.898Z,5.90
2023-04-09T19:17:13.561Z,5.78
2023-04-09T19:19:43.149Z,6.10
2023-04-09T19:22:15.914Z,5.38
2023-04-09T19:24:46.325Z,6.60
2023-04-09T19:27:15.947Z,5.80
2023-04-09T19:29:46.812Z,4.60
2023-04-09T19:32:17.006Z,5.43
2023-04-09T19:34:46.664Z,5.22
2023-04-09T19:37:19.368Z,7.22
2023-04-09T19:39:49.392Z,5.93
2023-04-09T19:42:19.077Z,6.47
2023-04-09T19:44:49.504Z,6.57
2023-04-09T19:47:19.430Z,7.28
2023-04-09T19:49:49.227Z,7.18
2023-04-09T19:52:21.870Z,6.22
2023-04-09T19:54:56.066Z,6.65
2023-04-09T19:57:26.644Z,7.53
2023-04-09T19:59:56.641Z,6.68
2023-04-09T20:02:26.664Z,7.15
2023-04-09T20:04:56.519Z,5.57
2023-04-09T20:07:29.836Z,6.22
2023-04-09T20:09:59.419Z,6.72
2023-04-09T20:12:29.775Z,6.68
2023-04-09T20:14:59.385Z,6.70
2023-04-09T20:17:29.244Z,5.55
2023-04-09T20:19:58.945Z,7.07
2023-04-09T20:22:31.211Z,5.75
2023-04-09T20:25:01.998Z,5.90
2023-04-09T20:27:32.249Z,5.43
2023-04-09T20:30:02.286Z,6.65
2023-04-09T20:32:32.602Z,8.52
2023-04-09T20:35:02.300Z,8.10
2023-04-09T20:37:34.572Z,10.45
2023-04-09T20:40:04.342Z,7.05
2023-04-09T20:42:33.973Z,6.97
2023-04-09T20:45:03.623Z,6.97
2023-04-09T20:47:33.257Z,9.20
2023-04-09T20:50:03.540Z,10.50
2023-04-09T20:52:36.414Z,17.83
2023-04-09T20:55:06.505Z,12.80
2023-04-09T20:57:36.248Z,30.70
2023-04-09T21:00:06.443Z,13.98
2023-04-09T21:02:36.128Z,12.05
2023-04-09T21:05:21.352Z,9.48
2023-04-09T21:07:55.523Z,7.80
2023-04-09T21:10:25.114Z,8.98
2023-04-09T21:12:54.708Z,6.45
2023-04-09T21:15:24.284Z,7.15
2023-04-09T21:17:53.935Z,5.95
2023-04-09T21:20:23.649Z,6.32
2023-04-09T21:22:56.561Z,7.10
2023-04-09T21:25:29.678Z,6.38
2023-04-09T21:28:02.210Z,6.68
2023-04-09T21:30:32.473Z,7.75
2023-04-09T21:33:03.852Z,6.80
2023-04-09T21:35:33.600Z,5.97
2023-04-09T21:38:06.207Z,6.75
2023-04-09T21:40:36.160Z,5.85
2023-04-09T21:43:05.962Z,6.80
2023-04-09T21:45:35.563Z,6.82
2023-04-09T21:48:05.830Z,6.22
2023-04-09T21:50:36.082Z,7.63
2023-04-09T21:53:08.738Z,6.72
2023-04-09T21:55:39.108Z,7.28
2023-04-09T21:58:09.371Z,7.15
2023-04-09T22:00:39.013Z,6.72
2023-04-09T22:03:08.752Z,6.00
2023-04-09T22:05:38.459Z,6.75
2023-04-09T22:08:10.887Z,8.70
2023-04-09T22:10:40.663Z,6.85
2023-04-09T22:13:10.482Z,7.03
2023-04-09T22:15:40.137Z,6.75
2023-04-09T22:18:09.887Z,7.93
2023-04-09T22:20:39.697Z,6.13
2023-04-09T22:23:12.534Z,8.05
2023-04-09T22:25:42.237Z,7.60
2023-04-09T22:28:11.795Z,7.25
2023-04-09T22:30:41.392Z,8.27
2023-04-09T22:33:10.945Z,7.75
2023-04-09T22:35:40.544Z,9.40
2023-04-09T22:38:12.956Z,8.65
2023-04-09T22:40:42.648Z,8.25
2023-04-09T22:43:12.283Z,8.18
2023-04-09T22:45:41.955Z,9.43
2023-04-09T22:48:11.783Z,8.75
2023-04-09T22:50:41.752Z,7.85
2023-04-09T22:53:18.670Z,8.63
2023-04-09T22:55:51.435Z,7.72
2023-04-09T22:58:21.280Z,9.80
2023-04-09T23:00:50.984Z,8.90
2023-04-09T23:03:20.683Z,6.53
2023-04-09T23:05:50.417Z,8.65
2023-04-09T23:08:22.658Z,7.57
2023-04-09T23:10:52.304Z,8.82
2023-04-09T23:13:21.945Z,8.40
2023-04-09T23:15:51.919Z,7.25
2023-04-09T23:18:21.546Z,7.45
2023-04-09T23:20:51.374Z,7.15
2023-04-09T23:23:23.638Z,10.18
2023-04-09T23:25:53.378Z,7.60
2023-04-09T23:28:22.960Z,9.32
2023-04-09T23:30:52.624Z,8.32
2023-04-09T23:33:22.302Z,7.22
2023-04-09T23:35:51.973Z,8.45
2023-04-09T23:38:24.269Z,8.23
2023-04-09T23:40:53.973Z,8.38
2023-04-09T23:43:23.587Z,8.20
2023-04-09T23:45:53.180Z,7.88
2023-04-09T23:48:22.756Z,9.02
2023-04-09T23:50:52.356Z,7.47
2023-04-09T23:53:24.593Z,7.30
2023-04-09T23:55:54.520Z,7.07
2023-04-09T23:58:24.314Z,9.40
